createdAt,value
2023-01-19T00:00:54.182Z,12.70
2023-01-19T00:03:21.709Z,14.20
2023-01-19T00:05:48.891Z,12.80
2023-01-19T00:08:16.755Z,15.10
2023-01-19T00:10:47.127Z,11.90
2023-01-19T00:13:15.056Z,13.00
2023-01-19T00:15:41.752Z,15.60
2023-01-19T00:18:10.589Z,14.50
2023-01-19T00:20:38.725Z,11.80
2023-01-19T00:23:07.640Z,12.60
2023-01-19T00:25:34.640Z,14.40
2023-01-19T00:28:02.010Z,9.70
2023-01-19T00:30:29.604Z,9.50
2023-01-19T00:32:56.636Z,12.20
2023-01-19T00:35:23.353Z,13.50
2023-01-19T00:37:50.099Z,10.70
2023-01-19T00:40:17.307Z,13.00
2023-01-19T00:42:44.628Z,13.50
2023-01-19T00:45:15.148Z,11.50
2023-01-19T00:47:42.232Z,15.00
2023-01-19T00:50:14.341Z,11.70
2023-01-19T00:52:41.355Z,12.70
2023-01-19T00:55:10.469Z,13.60
2023-01-19T00:57:38.790Z,14.30
2023-01-19T01:00:09.086Z,14.80
2023-01-19T01:02:36.873Z,12.40
2023-01-19T01:05:06.193Z,13.00
2023-01-19T01:07:40.616Z,11.80
2023-01-19T01:10:14.197Z,14.80
2023-01-19T01:12:41.763Z,8.80
2023-01-19T01:15:22.784Z,10.90
2023-01-19T01:17:52.941Z,10.60
2023-01-19T01:20:23.933Z,12.90
2023-01-19T01:22:53.591Z,12.70
2023-01-19T01:25:25.146Z,9.60
2023-01-19T01:27:52.513Z,10.10
2023-01-19T01:30:20.498Z,8.90
2023-01-19T01:32:47.325Z,11.20
2023-01-19T01:35:15.317Z,10.30
2023-01-19T01:37:42.954Z,11.40
2023-01-19T01:40:14.176Z,11.20
2023-01-19T01:42:42.563Z,11.10
2023-01-19T01:45:38.476Z,13.70
2023-01-19T01:48:27.139Z,11.30
2023-01-19T01:51:25.794Z,11.50
2023-01-19T01:54:10.887Z,14.10
2023-01-19T01:56:44.681Z,13.60
2023-01-19T01:59:29.446Z,13.80
2023-01-19T02:02:19.027Z,13.30
2023-01-19T02:04:58.041Z,10.90
2023-01-19T02:08:09.600Z,12.80
2023-01-19T02:10:55.390Z,12.80
2023-01-19T02:13:23.068Z,13.40
2023-01-19T02:15:57.923Z,9.00
2023-01-19T02:18:29.005Z,11.30
2023-01-19T02:21:24.448Z,12.10
2023-01-19T02:23:54.360Z,10.80
2023-01-19T02:26:28.529Z,10.40
2023-01-19T02:29:03.807Z,12.80
2023-01-19T02:31:32.513Z,11.20
2023-01-19T02:34:01.180Z,9.40
2023-01-19T02:36:56.186Z,9.20
2023-01-19T02:39:31.911Z,10.20
2023-01-19T02:42:07.196Z,11.80
2023-01-19T02:44:36.536Z,8.00
2023-01-19T02:47:04.317Z,11.10
2023-01-19T02:49:30.958Z,8.70
2023-01-19T02:51:59.138Z,6.70
2023-01-19T02:54:28.803Z,10.00
2023-01-19T02:57:36.193Z,9.00
2023-01-19T03:00:46.445Z,9.10
2023-01-19T03:03:55.907Z,10.70
2023-01-19T03:06:37.742Z,9.50
2023-01-19T03:09:31.846Z,11.40
2023-01-19T03:12:18.645Z,10.20
2023-01-19T03:14:48.105Z,11.20
2023-01-19T03:17:19.027Z,8.80
2023-01-19T03:19:49.564Z,11.80
2023-01-19T03:22:27.102Z,9.90
2023-01-19T03:24:57.118Z,10.80
2023-01-19T03:27:40.784Z,10.10
2023-01-19T03:30:18.569Z,12.00
2023-01-19T03:32:52.753Z,12.40
2023-01-19T03:35:24.278Z,11.60
2023-01-19T03:37:55.452Z,11.80
2023-01-19T03:40:24.754Z,14.10
2023-01-19T03:42:51.800Z,13.40
2023-01-19T03:45:18.634Z,14.80
2023-01-19T03:47:45.369Z,12.00
2023-01-19T03:50:22.140Z,13.50
2023-01-19T03:53:09.639Z,12.90
2023-01-19T03:55:39.383Z,15.20
2023-01-19T03:58:06.182Z,14.50
2023-01-19T04:00:33.993Z,11.10
2023-01-19T04:03:01.041Z,13.10
2023-01-19T04:05:27.984Z,13.10
2023-01-19T04:07:54.666Z,12.50
2023-01-19T04:10:22.268Z,11.60
2023-01-19T04:12:49.334Z,14.10
2023-01-19T04:15:16.398Z,13.50
2023-01-19T04:17:42.895Z,11.90
2023-01-19T04:20:10.209Z,11.80
2023-01-19T04:22:36.786Z,12.70
2023-01-19T04:25:04.076Z,15.50
2023-01-19T04:27:30.656Z,14.00
2023-01-19T04:29:57.357Z,16.70
2023-01-19T04:32:24.204Z,11.40
2023-01-19T04:34:50.819Z,10.10
2023-01-19T04:37:17.971Z,14.70
2023-01-19T04:39:44.487Z,11.80
2023-01-19T04:42:11.085Z,7.60
2023-01-19T04:44:37.637Z,15.40
2023-01-19T04:47:04.760Z,15.80
2023-01-19T04:49:31.472Z,13.80
2023-01-19T04:51:58.048Z,12.90
2023-01-19T04:54:24.742Z,12.90
2023-01-19T04:56:51.369Z,15.10
2023-01-19T04:59:19.851Z,13.40
2023-01-19T05:01:46.375Z,13.90
2023-01-19T05:04:12.980Z,16.30
2023-01-19T05:06:39.509Z,14.10
2023-01-19T05:09:09.117Z,14.80
2023-01-19T05:11:36.184Z,14.30
2023-01-19T05:14:02.830Z,14.20
2023-01-19T05:16:29.637Z,16.80
2023-01-19T05:18:56.786Z,17.50
2023-01-19T05:21:23.445Z,14.80
2023-01-19T05:23:50.051Z,15.70
2023-01-19T05:26:16.734Z,19.40
2023-01-19T05:28:43.360Z,16.50
2023-01-19T05:31:10.039Z,15.50
2023-01-19T05:33:36.707Z,16.40
2023-01-19T05:36:04.338Z,15.20
2023-01-19T05:38:35.617Z,17.30
2023-01-19T05:41:02.847Z,14.80
2023-01-19T05:43:29.488Z,17.60
2023-01-19T05:45:56.058Z,16.40
2023-01-19T05:48:22.696Z,19.20
2023-01-19T05:50:49.670Z,17.00
2023-01-19T05:53:17.429Z,15.10
2023-01-19T05:55:44.490Z,17.00
2023-01-19T05:58:11.140Z,15.20
2023-01-19T06:00:37.735Z,17.00
2023-01-19T06:03:06.524Z,18.30
2023-01-19T06:05:34.003Z,12.70
2023-01-19T06:08:00.570Z,15.40
2023-01-19T06:10:27.514Z,17.70
2023-01-19T06:12:54.091Z,15.00
2023-01-19T06:15:20.847Z,17.10
2023-01-19T06:17:47.521Z,17.10
2023-01-19T06:20:14.243Z,16.20
2023-01-19T06:22:40.888Z,18.00
2023-01-19T06:25:08.203Z,16.20
2023-01-19T06:27:34.817Z,15.70
2023-01-19T06:30:01.437Z,16.60
2023-01-19T06:32:28.132Z,15.50
2023-01-19T06:34:54.662Z,15.70
2023-01-19T06:37:21.291Z,17.00
2023-01-19T06:39:47.896Z,16.40
2023-01-19T06:42:14.497Z,16.50
2023-01-19T06:44:47.344Z,16.80
2023-01-19T06:47:16.491Z,18.80
2023-01-19T06:49:43.685Z,18.10
2023-01-19T06:52:12.293Z,17.30
2023-01-19T06:54:38.865Z,18.30
2023-01-19T06:57:05.730Z,19.00
2023-01-19T06:59:32.329Z,18.40
2023-01-19T07:01:59.170Z,19.90
2023-01-19T07:04:27.132Z,20.50
2023-01-19T07:06:53.856Z,16.80
2023-01-19T07:09:20.661Z,15.80
2023-01-19T07:11:48.475Z,15.10
2023-01-19T07:14:15.628Z,17.90
2023-01-19T07:16:42.563Z,16.90
2023-01-19T07:19:10.803Z,16.10
2023-01-19T07:21:37.626Z,16.20
2023-01-19T07:24:04.435Z,19.40
2023-01-19T07:26:31.158Z,14.30
2023-01-19T07:28:57.710Z,21.70
2023-01-19T07:31:24.586Z,15.90
2023-01-19T07:33:51.255Z,16.10
2023-01-19T07:36:17.945Z,17.10
2023-01-19T07:38:44.520Z,17.60
2023-01-19T07:41:11.726Z,16.40
2023-01-19T07:43:38.431Z,17.60
2023-01-19T07:46:07.861Z,16.90
2023-01-19T07:48:34.535Z,18.30
2023-01-19T07:51:05.878Z,17.70
2023-01-19T07:53:32.904Z,16.70
2023-01-19T07:55:59.661Z,15.40
2023-01-19T07:58:26.687Z,16.00
2023-01-19T08:00:53.775Z,17.50
2023-01-19T08:03:20.507Z,14.90
2023-01-19T08:05:52.614Z,15.70
2023-01-19T08:08:19.555Z,17.50
2023-01-19T08:10:50.786Z,14.90
2023-01-19T08:13:18.613Z,16.30
2023-01-19T08:15:45.327Z,16.30
2023-01-19T08:18:12.019Z,18.40
2023-01-19T08:20:38.719Z,18.10
2023-01-19T08:23:05.483Z,16.90
2023-01-19T08:25:35.308Z,15.60
2023-01-19T08:28:04.522Z,17.80
2023-01-19T08:30:31.491Z,13.70
2023-01-19T08:33:04.350Z,16.90
2023-01-19T08:35:32.428Z,15.90
2023-01-19T08:38:01.602Z,17.20
2023-01-19T08:40:30.876Z,17.00
2023-01-19T08:43:06.690Z,16.30
2023-01-19T08:45:41.633Z,14.90
2023-01-19T08:48:08.357Z,16.70
2023-01-19T08:50:35.144Z,12.40
2023-01-19T08:53:04.562Z,14.80
2023-01-19T08:55:31.250Z,13.90
2023-01-19T08:58:00.163Z,18.40
2023-01-19T09:00:28.162Z,15.60
2023-01-19T09:02:55.100Z,16.10
2023-01-19T09:05:22.346Z,12.90
2023-01-19T09:07:49.970Z,13.70
2023-01-19T09:10:17.877Z,13.60
2023-01-19T09:12:45.061Z,14.90
2023-01-19T09:15:13.965Z,15.40
2023-01-19T09:17:42.356Z,12.80
2023-01-19T09:20:10.153Z,16.90
2023-01-19T09:22:36.783Z,16.10
2023-01-19T09:25:03.785Z,9.20
2023-01-19T09:27:30.928Z,12.70
2023-01-19T09:29:57.491Z,14.10
2023-01-19T09:32:24.182Z,14.10
2023-01-19T09:34:51.199Z,15.10
2023-01-19T09:37:17.965Z,11.50
2023-01-19T09:39:44.647Z,12.10
2023-01-19T09:42:44.752Z,12.00
2023-01-19T09:45:23.044Z,12.70
2023-01-19T09:47:51.319Z,12.80
2023-01-19T09:50:28.225Z,13.90
2023-01-19T09:53:15.362Z,13.90
2023-01-19T09:55:42.641Z,13.40
2023-01-19T09:58:18.344Z,16.90
2023-01-19T10:00:55.820Z,13.80
2023-01-19T10:03:23.973Z,11.20
2023-01-19T10:06:04.824Z,16.60
2023-01-19T10:08:53.875Z,13.30
2023-01-19T10:11:52.672Z,12.90
2023-01-19T10:14:36.938Z,16.60
2023-01-19T10:17:47.047Z,13.70
2023-01-19T10:20:39.936Z,13.10
2023-01-19T10:23:30.251Z,10.50
2023-01-19T10:26:01.335Z,12.30
2023-01-19T10:28:28.274Z,11.40
2023-01-19T10:30:56.033Z,10.30
2023-01-19T10:33:22.868Z,10.00
2023-01-19T10:35:50.484Z,10.80
2023-01-19T10:38:22.220Z,11.10
2023-01-19T10:41:06.169Z,12.20
2023-01-19T10:43:35.466Z,11.50
2023-01-19T10:46:18.053Z,11.40
2023-01-19T10:48:51.999Z,11.60
2023-01-19T10:51:20.190Z,11.60
2023-01-19T10:54:01.681Z,10.60
2023-01-19T10:56:34.846Z,9.60
2023-01-19T10:59:05.213Z,11.40
2023-01-19T11:01:36.927Z,10.80
2023-01-19T11:04:29.352Z,13.90
2023-01-19T11:07:21.320Z,8.60
2023-01-19T11:09:49.511Z,8.50
2023-01-19T11:12:23.324Z,10.30
2023-01-19T11:14:51.352Z,11.40
2023-01-19T11:17:25.356Z,9.80
2023-01-19T11:19:59.353Z,10.30
2023-01-19T11:22:30.670Z,9.60
2023-01-19T11:25:00.175Z,9.20
2023-01-19T11:27:27.735Z,8.70
2023-01-19T11:30:22.984Z,10.00
2023-01-19T11:32:49.672Z,10.20
2023-01-19T11:35:35.346Z,13.00
2023-01-19T11:38:20.773Z,8.80
2023-01-19T11:40:59.060Z,9.60
2023-01-19T11:43:43.355Z,11.80
2023-01-19T11:46:15.499Z,10.30
2023-01-19T11:49:38.476Z,12.10
2023-01-19T11:52:13.635Z,10.10
2023-01-19T11:55:10.895Z,10.40
2023-01-19T11:57:39.547Z,12.10
2023-01-19T12:00:47.388Z,8.20
2023-01-19T12:03:24.291Z,12.50
2023-01-19T12:06:02.377Z,10.80
2023-01-19T12:08:41.910Z,11.60
2023-01-19T12:11:16.704Z,9.50
2023-01-19T12:13:45.634Z,9.20
2023-01-19T12:16:20.721Z,11.90
2023-01-19T12:19:01.727Z,11.70
2023-01-19T12:21:28.556Z,15.40
2023-01-19T12:24:16.436Z,9.70
2023-01-19T12:27:02.239Z,10.00
2023-01-19T12:29:33.453Z,12.40
2023-01-19T12:32:18.416Z,7.90
2023-01-19T12:34:49.526Z,10.20
2023-01-19T12:37:31.186Z,9.70
2023-01-19T12:40:21.212Z,8.80
2023-01-19T12:43:02.201Z,8.80
2023-01-19T12:45:35.324Z,9.90
2023-01-19T12:48:04.346Z,10.00
2023-01-19T12:50:38.244Z,9.20
2023-01-19T12:53:17.872Z,9.30
2023-01-19T12:55:47.575Z,10.00
2023-01-19T12:58:18.881Z,10.40
2023-01-19T13:00:48.924Z,9.10
2023-01-19T13:03:18.401Z,8.90
2023-01-19T13:05:44.956Z,10.40
2023-01-19T13:08:14.171Z,6.70
2023-01-19T13:10:59.820Z,7.70
2023-01-19T13:13:40.370Z,8.10
2023-01-19T13:16:19.179Z,9.00
2023-01-19T13:19:06.239Z,10.40
2023-01-19T13:21:47.398Z,12.70
2023-01-19T13:24:25.229Z,11.60
2023-01-19T13:26:51.759Z,11.60
2023-01-19T13:29:26.631Z,11.30
2023-01-19T13:31:56.103Z,9.90
2023-01-19T13:34:27.916Z,12.30
2023-01-19T13:36:59.257Z,10.10
2023-01-19T13:39:41.742Z,8.60
2023-01-19T13:42:16.415Z,8.90
2023-01-19T13:44:52.351Z,12.80
2023-01-19T13:47:45.687Z,13.60
2023-01-19T13:50:26.325Z,10.00
2023-01-19T13:52:55.664Z,10.40
2023-01-19T13:55:24.156Z,9.30
2023-01-19T13:57:52.393Z,10.40
2023-01-19T14:00:26.811Z,6.20
2023-01-19T14:03:01.032Z,10.40
2023-01-19T14:05:35.798Z,9.70
2023-01-19T14:08:11.307Z,11.10
2023-01-19T14:10:40.517Z,7.80
2023-01-19T14:13:16.314Z,7.90
2023-01-19T14:15:45.173Z,6.90
2023-01-19T14:18:14.479Z,8.80
2023-01-19T14:20:42.207Z,8.60
2023-01-19T14:24:10.384Z,6.00
2023-01-19T14:27:25.507Z,7.80
2023-01-19T14:29:54.772Z,7.70
2023-01-19T14:32:24.871Z,8.40
2023-01-19T14:35:14.615Z,5.10
2023-01-19T14:37:50.301Z,7.20
2023-01-19T14:40:22.409Z,11.80
2023-01-19T14:43:00.154Z,6.70
2023-01-19T14:45:39.536Z,7.50
2023-01-19T14:48:17.966Z,9.10
2023-01-19T14:51:01.901Z,8.70
2023-01-19T14:53:36.581Z,12.00
2023-01-19T14:56:06.066Z,9.50
2023-01-19T14:58:35.866Z,7.70
2023-01-19T15:01:04.708Z,9.90
2023-01-19T15:03:44.704Z,8.80
2023-01-19T15:06:19.068Z,8.20
2023-01-19T15:08:47.143Z,9.80
2023-01-19T15:11:28.400Z,7.40
2023-01-19T15:13:59.188Z,8.80
2023-01-19T15:16:28.103Z,8.00
2023-01-19T15:18:55.342Z,9.20
2023-01-19T15:21:29.119Z,11.30
2023-01-19T15:23:56.255Z,11.30
2023-01-19T15:26:25.938Z,9.40
2023-01-19T15:28:53.556Z,8.60
2023-01-19T15:31:23.637Z,8.20
2023-01-19T15:33:50.654Z,9.80
2023-01-19T15:36:22.118Z,7.40
2023-01-19T15:38:51.254Z,8.10
2023-01-19T15:41:29.673Z,10.00
2023-01-19T15:43:57.029Z,8.00
2023-01-19T15:46:25.810Z,10.70
2023-01-19T15:48:53.780Z,13.50
2023-01-19T15:51:25.468Z,7.00
2023-01-19T15:53:53.781Z,8.60
2023-01-19T15:56:23.438Z,7.80
2023-01-19T15:58:50.846Z,7.90
2023-01-19T16:01:22.396Z,8.90
2023-01-19T16:03:50.333Z,8.70
2023-01-19T16:06:18.311Z,9.80
2023-01-19T16:08:45.438Z,8.60
2023-01-19T16:11:15.473Z,11.80
2023-01-19T16:13:46.310Z,11.10
2023-01-19T16:16:20.401Z,8.70
2023-01-19T16:18:47.822Z,9.90
2023-01-19T16:21:14.560Z,8.10
2023-01-19T16:23:41.128Z,7.90
2023-01-19T16:26:34.210Z,9.20
2023-01-19T16:29:08.780Z,12.50
2023-01-19T16:31:40.899Z,9.80
2023-01-19T16:34:09.247Z,9.80
2023-01-19T16:36:38.676Z,9.30
2023-01-19T16:39:11.923Z,9.70
2023-01-19T16:41:39.091Z,13.10
2023-01-19T16:44:06.663Z,8.50
2023-01-19T16:46:37.757Z,8.90
2023-01-19T16:49:10.991Z,9.70
2023-01-19T16:51:38.201Z,9.10
2023-01-19T16:54:05.379Z,8.40
2023-01-19T16:56:32.009Z,6.20
2023-01-19T16:58:59.497Z,6.30
2023-01-19T17:01:29.359Z,9.20
2023-01-19T17:03:56.643Z,9.50
2023-01-19T17:06:24.815Z,8.30
2023-01-19T17:08:53.129Z,9.60
2023-01-19T17:11:27.277Z,9.30
2023-01-19T17:14:02.951Z,9.40
2023-01-19T17:16:32.355Z,11.90
2023-01-19T17:19:03.622Z,8.90
2023-01-19T17:21:30.289Z,8.60
2023-01-19T17:23:58.410Z,6.50
2023-01-19T17:26:28.458Z,9.30
2023-01-19T17:29:06.007Z,7.60
2023-01-19T17:31:33.997Z,9.70
2023-01-19T17:34:01.130Z,9.60
2023-01-19T17:36:31.381Z,11.00
2023-01-19T17:39:00.931Z,9.50
2023-01-19T17:41:31.562Z,11.90
2023-01-19T17:44:00.344Z,9.00
2023-01-19T17:46:29.251Z,9.10
2023-01-19T17:49:04.631Z,10.40
2023-01-19T17:51:31.748Z,11.20
2023-01-19T17:53:59.316Z,13.30
2023-01-19T17:56:32.665Z,9.60
2023-01-19T17:58:59.789Z,10.60
2023-01-19T18:01:30.278Z,9.70
2023-01-19T18:03:58.177Z,8.40
2023-01-19T18:06:24.933Z,10.10
2023-01-19T18:08:52.598Z,9.20
2023-01-19T18:11:21.367Z,10.00
2023-01-19T18:13:50.749Z,10.80
2023-01-19T18:16:23.357Z,11.00
2023-01-19T18:18:53.704Z,11.30
2023-01-19T18:21:22.096Z,8.90
2023-01-19T18:23:50.141Z,9.30
2023-01-19T18:26:20.502Z,9.10
2023-01-19T18:28:48.773Z,9.70
2023-01-19T18:31:18.709Z,8.60
2023-01-19T18:33:46.585Z,8.90
2023-01-19T18:36:13.865Z,9.00
2023-01-19T18:38:41.019Z,13.10
2023-01-19T18:41:16.316Z,10.90
2023-01-19T18:43:43.628Z,9.00
2023-01-19T18:46:11.512Z,8.10
2023-01-19T18:48:39.600Z,9.30
2023-01-19T18:51:12.478Z,9.00
2023-01-19T18:53:39.901Z,9.60
2023-01-19T18:56:07.472Z,10.40
2023-01-19T18:58:38.172Z,9.60
2023-01-19T19:01:17.410Z,8.50
2023-01-19T19:03:44.300Z,10.60
2023-01-19T19:06:11.665Z,10.80
2023-01-19T19:08:38.357Z,10.60
2023-01-19T19:11:09.097Z,11.90
2023-01-19T19:13:36.611Z,9.70
2023-01-19T19:16:09.084Z,10.60
2023-01-19T19:18:37.015Z,11.30
2023-01-19T19:21:10.141Z,10.90
2023-01-19T19:23:37.244Z,10.30
2023-01-19T19:26:10.113Z,10.60
2023-01-19T19:28:40.172Z,9.90
2023-01-19T19:31:13.084Z,10.80
2023-01-19T19:33:39.923Z,14.40
2023-01-19T19:36:08.142Z,12.30
2023-01-19T19:38:36.954Z,10.30
2023-01-19T19:41:09.247Z,17.60
2023-01-19T19:43:37.102Z,10.60
2023-01-19T19:46:08.332Z,11.00
2023-01-19T19:48:38.900Z,10.40
2023-01-19T19:51:18.340Z,8.60
2023-01-19T19:53:46.779Z,10.70
2023-01-19T19:56:13.845Z,9.90
2023-01-19T19:58:42.529Z,10.40
2023-01-19T20:01:12.391Z,10.20
2023-01-19T20:03:39.953Z,10.60
2023-01-19T20:06:15.939Z,11.50
2023-01-19T20:08:42.652Z,9.80
2023-01-19T20:11:13.508Z,10.60
2023-01-19T20:13:42.678Z,11.60
2023-01-19T20:16:17.229Z,12.00
2023-01-19T20:18:48.573Z,8.70
2023-01-19T20:21:22.222Z,10.70
2023-01-19T20:23:50.894Z,9.80
2023-01-19T20:26:26.382Z,10.70
2023-01-19T20:28:54.520Z,8.90
2023-01-19T20:31:27.053Z,11.30
2023-01-19T20:33:56.446Z,8.50
2023-01-19T20:36:24.521Z,6.30
2023-01-19T20:38:55.283Z,8.40
2023-01-19T20:41:23.006Z,9.50
2023-01-19T20:43:50.337Z,10.30
2023-01-19T20:46:18.281Z,11.30
2023-01-19T20:48:50.680Z,10.40
2023-01-19T20:51:18.820Z,10.10
2023-01-19T20:53:45.984Z,9.90
2023-01-19T20:56:14.481Z,7.60
2023-01-19T20:58:41.810Z,6.90
2023-01-19T21:01:24.937Z,8.30
2023-01-19T21:03:52.563Z,7.90
2023-01-19T21:06:21.502Z,8.50
2023-01-19T21:08:50.056Z,9.10
2023-01-19T21:11:20.719Z,7.10
2023-01-19T21:13:48.918Z,7.60
2023-01-19T21:16:15.939Z,6.70
2023-01-19T21:18:43.281Z,7.90
2023-01-19T21:21:20.892Z,7.30
2023-01-19T21:23:57.191Z,7.80
2023-01-19T21:26:24.166Z,6.80
2023-01-19T21:28:50.879Z,10.80
2023-01-19T21:31:17.801Z,8.10
2023-01-19T21:33:44.445Z,9.50
2023-01-19T21:36:11.178Z,8.70
2023-01-19T21:38:39.377Z,9.30
2023-01-19T21:41:12.756Z,10.30
2023-01-19T21:43:41.802Z,9.60
2023-01-19T21:46:29.787Z,9.00
2023-01-19T21:49:05.779Z,9.90
2023-01-19T21:51:35.395Z,10.20
2023-01-19T21:54:04.138Z,10.70
2023-01-19T21:56:30.886Z,10.50
2023-01-19T21:59:02.208Z,9.70
2023-01-19T22:01:29.822Z,9.80
2023-01-19T22:03:58.308Z,8.50
2023-01-19T22:06:26.690Z,9.40
2023-01-19T22:08:54.664Z,9.20
2023-01-19T22:11:22.039Z,9.10
2023-01-19T22:13:48.684Z,10.00
2023-01-19T22:16:21.363Z,8.30
2023-01-19T22:19:02.300Z,8.60
2023-01-19T22:21:35.337Z,7.20
2023-01-19T22:24:04.682Z,8.80
2023-01-19T22:26:34.230Z,8.30
2023-01-19T22:29:03.091Z,7.80
2023-01-19T22:31:30.873Z,9.60
2023-01-19T22:33:58.073Z,7.70
2023-01-19T22:36:28.926Z,8.90
2023-01-19T22:38:58.865Z,7.30
2023-01-19T22:41:29.535Z,6.60
2023-01-19T22:43:59.725Z,7.30
2023-01-19T22:46:30.706Z,8.80
2023-01-19T22:48:58.775Z,10.20
2023-01-19T22:51:27.193Z,8.00
2023-01-19T22:53:54.038Z,6.70
2023-01-19T22:56:27.496Z,7.10
2023-01-19T22:58:54.943Z,10.80
2023-01-19T23:01:42.908Z,8.60
2023-01-19T23:04:14.589Z,8.80
2023-01-19T23:06:41.389Z,8.00
2023-01-19T23:09:12.682Z,7.10
2023-01-19T23:11:43.295Z,9.30
2023-01-19T23:14:15.717Z,7.80
2023-01-19T23:16:42.532Z,7.80
2023-01-19T23:19:12.240Z,9.50
2023-01-19T23:21:38.911Z,9.60
2023-01-19T23:24:05.861Z,7.80
2023-01-19T23:26:39.025Z,7.50
2023-01-19T23:29:12.736Z,7.90
2023-01-19T23:31:44.061Z,7.50
2023-01-19T23:34:12.382Z,8.70
2023-01-19T23:36:41.440Z,7.80
2023-01-19T23:39:17.655Z,8.60
2023-01-19T23:41:45.628Z,8.90
2023-01-19T23:44:13.081Z,8.00
2023-01-19T23:46:39.783Z,7.40
2023-01-19T23:49:06.563Z,7.40
2023-01-19T23:51:35.884Z,7.40
2023-01-19T23:54:02.743Z,8.80
2023-01-19T23:56:33.548Z,9.90
2023-01-19T23:59:13.280Z,10.30
